sensor_id;sensor_type;location;lat;lon;timestamp;pressure;altitude;pressure_sealevel;temperature;humidity
70902;BME280;58548;47.210;8.618;2022-08-03T00:00:29;94258.91;;;26.27;39.41
70902;BME280;58548;47.210;8.618;2022-08-03T00:02:57;94186.63;;;25.79;38.87
70902;BME280;58548;47.210;8.618;2022-08-03T00:05:23;94244.38;;;26.14;39.14
70902;BME280;58548;47.210;8.618;2022-08-03T00:07:49;94266.47;;;26.25;39.59
70902;BME280;58548;47.210;8.618;2022-08-03T00:10:19;94259.50;;;26.24;39.81
70902;BME280;58548;47.210;8.618;2022-08-03T00:12:48;94239.28;;;26.08;39.10
70902;BME280;58548;47.210;8.618;2022-08-03T00:15:18;94244.63;;;26.13;39.10
70902;BME280;58548;47.210;8.618;2022-08-03T00:17:47;94265.44;;;26.21;39.19
70902;BME280;58548;47.210;8.618;2022-08-03T00:20:13;94259.81;;;26.17;38.61
70902;BME280;58548;47.210;8.618;2022-08-03T00:22:41;94259.81;;;26.17;39.46
70902;BME280;58548;47.210;8.618;2022-08-03T00:25:10;94183.53;;;25.66;39.00
70902;BME280;58548;47.210;8.618;2022-08-03T00:27:36;94259.59;;;26.14;39.16
70902;BME280;58548;47.210;8.618;2022-08-03T00:30:02;94232.47;;;25.96;39.04
70902;BME280;58548;47.210;8.618;2022-08-03T00:32:30;94182.50;;;25.62;39.05
70902;BME280;58548;47.210;8.618;2022-08-03T00:34:57;94258.00;;;26.13;38.96
70902;BME280;58548;47.210;8.618;2022-08-03T00:37:23;94200.09;;;25.68;39.08
70902;BME280;58548;47.210;8.618;2022-08-03T00:39:49;94213.97;;;25.70;39.48
70902;BME280;58548;47.210;8.618;2022-08-03T00:42:15;94246.91;;;25.95;39.63
70902;BME280;58548;47.210;8.618;2022-08-03T00:44:42;94245.31;;;25.94;39.14
70902;BME280;58548;47.210;8.618;2022-08-03T00:47:11;94202.75;;;25.68;39.60
70902;BME280;58548;47.210;8.618;2022-08-03T00:49:40;94253.31;;;25.99;39.57
70902;BME280;58548;47.210;8.618;2022-08-03T00:52:10;94184.72;;;25.55;39.19
70902;BME280;58548;47.210;8.618;2022-08-03T00:54:38;94258.66;;;25.99;39.00
70902;BME280;58548;47.210;8.618;2022-08-03T00:57:05;94251.72;;;25.98;39.00
70902;BME280;58548;47.210;8.618;2022-08-03T00:59:34;94182.59;;;25.52;40.18
70902;BME280;58548;47.210;8.618;2022-08-03T01:02:00;94179.69;;;25.48;40.04
70902;BME280;58548;47.210;8.618;2022-08-03T01:04:26;94247.78;;;25.91;39.44
70902;BME280;58548;47.210;8.618;2022-08-03T01:07:08;94246.41;;;25.93;39.90
70902;BME280;58548;47.210;8.618;2022-08-03T01:13:01;94238.00;;;25.76;40.01
70902;BME280;58548;47.210;8.618;2022-08-03T01:15:45;94237.50;;;25.73;39.33
70902;BME280;58548;47.210;8.618;2022-08-03T01:20:57;94177.38;;;25.36;39.93
70902;BME280;58548;47.210;8.618;2022-08-03T01:26:20;94254.03;;;25.81;39.77
70902;BME280;58548;47.210;8.618;2022-08-03T01:32:11;94248.97;;;25.74;39.95
70902;BME280;58548;47.210;8.618;2022-08-03T01:34:47;94175.31;;;25.23;39.79
70902;BME280;58548;47.210;8.618;2022-08-03T01:37:25;94241.53;;;25.71;40.41
70902;BME280;58548;47.210;8.618;2022-08-03T01:39:56;94174.75;;;25.26;40.34
70902;BME280;58548;47.210;8.618;2022-08-03T01:42:28;94249.56;;;25.71;40.58
70902;BME280;58548;47.210;8.618;2022-08-03T01:44:59;94236.25;;;25.61;40.25
70902;BME280;58548;47.210;8.618;2022-08-03T01:47:27;94241.84;;;25.64;40.48
70902;BME280;58548;47.210;8.618;2022-08-03T01:50:01;94239.69;;;25.66;40.17
70902;BME280;58548;47.210;8.618;2022-08-03T01:52:29;94185.72;;;25.29;40.18
70902;BME280;58548;47.210;8.618;2022-08-03T01:54:58;94186.19;;;25.32;40.01
70902;BME280;58548;47.210;8.618;2022-08-03T01:57:28;94245.63;;;25.63;40.71
70902;BME280;58548;47.210;8.618;2022-08-03T02:00:00;94176.44;;;25.17;40.52
70902;BME280;58548;47.210;8.618;2022-08-03T02:02:31;94239.22;;;25.59;40.95
70902;BME280;58548;47.210;8.618;2022-08-03T02:05:00;94242.50;;;25.51;40.73
70902;BME280;58548;47.210;8.618;2022-08-03T02:07:32;94199.94;;;25.20;40.65
70902;BME280;58548;47.210;8.618;2022-08-03T02:10:00;94235.59;;;25.44;41.05
70902;BME280;58548;47.210;8.618;2022-08-03T02:12:29;94250.00;;;25.49;40.93
70902;BME280;58548;47.210;8.618;2022-08-03T02:14:58;94243.59;;;25.44;40.43
70902;BME280;58548;47.210;8.618;2022-08-03T02:17:25;94189.91;;;25.01;40.51
70902;BME280;58548;47.210;8.618;2022-08-03T02:19:59;94236.72;;;25.33;40.92
70902;BME280;58548;47.210;8.618;2022-08-03T02:22:28;94180.88;;;24.97;40.31
70902;BME280;58548;47.210;8.618;2022-08-03T02:24:57;94235.69;;;25.29;40.64
70902;BME280;58548;47.210;8.618;2022-08-03T02:27:25;94246.84;;;25.36;40.94
70902;BME280;58548;47.210;8.618;2022-08-03T02:30:04;94246.31;;;25.39;40.11
70902;BME280;58548;47.210;8.618;2022-08-03T02:32:36;94244.72;;;25.38;40.69
70902;BME280;58548;47.210;8.618;2022-08-03T02:35:08;94246.84;;;25.36;40.56
70902;BME280;58548;47.210;8.618;2022-08-03T02:37:41;94228.72;;;25.28;40.84
70902;BME280;58548;47.210;8.618;2022-08-03T02:40:12;94245.25;;;25.35;40.84
70902;BME280;58548;47.210;8.618;2022-08-03T02:42:45;94231.97;;;25.25;40.46
70902;BME280;58548;47.210;8.618;2022-08-03T02:45:17;94160.88;;;24.89;40.42
70902;BME280;58548;47.210;8.618;2022-08-03T02:47:48;94237.25;;;25.35;40.49
70902;BME280;58548;47.210;8.618;2022-08-03T02:50:16;94233.53;;;25.31;40.27
70902;BME280;58548;47.210;8.618;2022-08-03T02:52:47;94157.50;;;24.78;40.64
70902;BME280;58548;47.210;8.618;2022-08-03T02:55:21;94228.47;;;25.29;40.37
70902;BME280;58548;47.210;8.618;2022-08-03T02:57:49;94222.94;;;25.21;40.64
70902;BME280;58548;47.210;8.618;2022-08-03T03:00:16;94149.75;;;24.77;40.83
70902;BME280;58548;47.210;8.618;2022-08-03T03:02:43;94234.63;;;25.25;40.80
70902;BME280;58548;47.210;8.618;2022-08-03T03:05:13;94229.28;;;25.25;40.61
70902;BME280;58548;47.210;8.618;2022-08-03T03:07:45;94155.38;;;24.75;41.07
70902;BME280;58548;47.210;8.618;2022-08-03T03:10:11;94232.00;;;25.20;40.83
70902;BME280;58548;47.210;8.618;2022-08-03T03:12:39;94212.28;;;25.10;40.81
70902;BME280;58548;47.210;8.618;2022-08-03T03:15:06;94230.41;;;25.19;40.90
70902;BME280;58548;47.210;8.618;2022-08-03T03:17:35;94182.03;;;24.80;41.20
70902;BME280;58548;47.210;8.618;2022-08-03T03:20:05;94206.00;;;24.96;40.88
70902;BME280;58548;47.210;8.618;2022-08-03T03:22:35;94240.06;;;25.14;41.00
70902;BME280;58548;47.210;8.618;2022-08-03T03:25:05;94150.06;;;24.60;40.93
70902;BME280;58548;47.210;8.618;2022-08-03T03:27:34;94166.59;;;24.67;40.55
70902;BME280;58548;47.210;8.618;2022-08-03T03:30:01;94216.66;;;24.96;40.58
70902;BME280;58548;47.210;8.618;2022-08-03T03:32:30;94235.06;;;25.03;40.93
70902;BME280;58548;47.210;8.618;2022-08-03T03:34:57;94161.88;;;24.53;41.11
70902;BME280;58548;47.210;8.618;2022-08-03T03:37:27;94237.72;;;25.03;40.85
70902;BME280;58548;47.210;8.618;2022-08-03T03:39:56;94184.53;;;24.61;41.37
70902;BME280;58548;47.210;8.618;2022-08-03T03:42:24;94223.66;;;24.87;41.10
70902;BME280;58548;47.210;8.618;2022-08-03T03:44:53;94242.84;;;24.99;40.96
70902;BME280;58548;47.210;8.618;2022-08-03T03:47:19;94171.19;;;24.56;41.88
70902;BME280;58548;47.210;8.618;2022-08-03T03:49:45;94214.06;;;24.80;41.88
70902;BME280;58548;47.210;8.618;2022-08-03T03:52:15;94234.84;;;24.94;41.21
70902;BME280;58548;47.210;8.618;2022-08-03T03:54:44;94237.50;;;24.94;41.76
70902;BME280;58548;47.210;8.618;2022-08-03T03:57:12;94194.38;;;24.61;41.34
70902;BME280;58548;47.210;8.618;2022-08-03T03:59:41;94224.50;;;24.82;41.75
70902;BME280;58548;47.210;8.618;2022-08-03T04:02:09;94227.72;;;24.79;41.56
70902;BME280;58548;47.210;8.618;2022-08-03T04:04:38;94247.91;;;24.95;41.37
70902;BME280;58548;47.210;8.618;2022-08-03T04:07:26;94248.50;;;24.87;42.13
70902;BME280;58548;47.210;8.618;2022-08-03T04:10:27;94168.88;;;24.39;41.70
70902;BME280;58548;47.210;8.618;2022-08-03T04:13:17;94242.88;;;24.89;41.55
70902;BME280;58548;47.210;8.618;2022-08-03T04:15:48;94177.16;;;24.43;41.95
70902;BME280;58548;47.210;8.618;2022-08-03T04:18:17;94254.63;;;24.93;41.97
70902;BME280;58548;47.210;8.618;2022-08-03T04:20:46;94261.28;;;24.90;41.46
70902;BME280;58548;47.210;8.618;2022-08-03T04:23:20;94192.03;;;24.49;41.96
70902;BME280;58548;47.210;8.618;2022-08-03T04:25:48;94245.88;;;24.82;41.68
70902;BME280;58548;47.210;8.618;2022-08-03T04:28:19;94181.66;;;24.47;41.65
70902;BME280;58548;47.210;8.618;2022-08-03T04:30:48;94227.47;;;24.75;42.06
70902;BME280;58548;47.210;8.618;2022-08-03T04:33:19;94244.50;;;24.84;41.42
70902;BME280;58548;47.210;8.618;2022-08-03T04:35:50;94249.81;;;24.90;41.77
70902;BME280;58548;47.210;8.618;2022-08-03T04:38:23;94183.00;;;24.45;41.64
70902;BME280;58548;47.210;8.618;2022-08-03T04:40:53;94257.53;;;24.91;41.71
70902;BME280;58548;47.210;8.618;2022-08-03T04:43:21;94245.03;;;24.87;42.10
70902;BME280;58548;47.210;8.618;2022-08-03T04:45:53;94242.03;;;24.93;41.86
70902;BME280;58548;47.210;8.618;2022-08-03T04:48:26;94241.78;;;24.95;41.93
70902;BME280;58548;47.210;8.618;2022-08-03T04:50:53;94190.91;;;24.65;41.29
70902;BME280;58548;47.210;8.618;2022-08-03T04:53:20;94193.84;;;24.74;41.46
70902;BME280;58548;47.210;8.618;2022-08-03T04:55:46;94256.88;;;25.15;41.21
70902;BME280;58548;47.210;8.618;2022-08-03T04:58:14;94257.41;;;25.17;41.79
70902;BME280;58548;47.210;8.618;2022-08-03T05:00:40;94216.66;;;24.96;41.65
70902;BME280;58548;47.210;8.618;2022-08-03T05:03:06;94248.06;;;25.20;42.37
70902;BME280;58548;47.210;8.618;2022-08-03T05:05:32;94263.22;;;25.29;41.53
70902;BME280;58548;47.210;8.618;2022-08-03T05:07:58;94215.53;;;25.02;41.88
70902;BME280;58548;47.210;8.618;2022-08-03T05:10:24;94259.38;;;25.41;42.23
70902;BME280;58548;47.210;8.618;2022-08-03T05:12:50;94198.19;;;25.05;41.54
70902;BME280;58548;47.210;8.618;2022-08-03T05:15:16;94261.16;;;25.61;42.00
70902;BME280;58548;47.210;8.618;2022-08-03T05:17:43;94189.00;;;25.16;41.46
70902;BME280;58548;47.210;8.618;2022-08-03T05:20:11;94233.19;;;25.43;41.93
70902;BME280;58548;47.210;8.618;2022-08-03T05:22:37;94189.00;;;25.16;42.10
70902;BME280;58548;47.210;8.618;2022-08-03T05:25:03;94274.97;;;25.68;41.39
70902;BME280;58548;47.210;8.618;2022-08-03T05:27:34;94268.50;;;25.74;41.21
70902;BME280;58548;47.210;8.618;2022-08-03T05:30:04;94197.69;;;25.32;41.33
70902;BME280;58548;47.210;8.618;2022-08-03T05:32:33;94278.53;;;25.88;41.68
70902;BME280;58548;47.210;8.618;2022-08-03T05:35:01;94223.13;;;25.64;42.06
70902;BME280;58548;47.210;8.618;2022-08-03T05:37:29;94274.16;;;26.02;41.64
70902;BME280;58548;47.210;8.618;2022-08-03T05:39:55;94216.38;;;25.72;41.05
70902;BME280;58548;47.210;8.618;2022-08-03T05:42:21;94274.53;;;26.20;42.21
70902;BME280;58548;47.210;8.618;2022-08-03T05:44:49;94207.41;;;25.87;41.30
70902;BME280;58548;47.210;8.618;2022-08-03T05:47:15;94268.75;;;26.37;41.76
70902;BME280;58548;47.210;8.618;2022-08-03T05:49:41;94273.09;;;26.52;41.95
70902;BME280;58548;47.210;8.618;2022-08-03T05:52:07;94281.97;;;26.72;42.15
70902;BME280;58548;47.210;8.618;2022-08-03T05:54:35;94275.47;;;26.83;41.95
70902;BME280;58548;47.210;8.618;2022-08-03T05:57:04;94286.47;;;27.01;42.54
70902;BME280;58548;47.210;8.618;2022-08-03T05:59:30;94184.09;;;26.60;42.01
70902;BME280;58548;47.210;8.618;2022-08-03T06:01:58;94269.69;;;27.52;42.13
70902;BME280;58548;47.210;8.618;2022-08-03T06:04:24;94267.94;;;27.95;41.81
70902;BME280;58548;47.210;8.618;2022-08-03T06:06:50;94273.56;;;28.40;40.65
70902;BME280;58548;47.210;8.618;2022-08-03T06:09:16;94268.03;;;28.79;40.67
70902;BME280;58548;47.210;8.618;2022-08-03T06:11:44;94218.22;;;28.95;40.32
70902;BME280;58548;47.210;8.618;2022-08-03T06:14:10;94267.34;;;29.60;38.90
70902;BME280;58548;47.210;8.618;2022-08-03T06:16:36;94220.00;;;29.82;38.12
70902;BME280;58548;47.210;8.618;2022-08-03T06:19:02;94218.63;;;30.34;37.37
70902;BME280;58548;47.210;8.618;2022-08-03T06:21:31;94269.28;;;31.12;37.06
70902;BME280;58548;47.210;8.618;2022-08-03T06:23:59;94257.06;;;31.59;35.65
70902;BME280;58548;47.210;8.618;2022-08-03T06:26:26;94221.06;;;31.72;34.81
70902;BME280;58548;47.210;8.618;2022-08-03T06:28:55;94273.47;;;32.45;33.47
70902;BME280;58548;47.210;8.618;2022-08-03T06:31:25;94288.66;;;32.98;33.33
70902;BME280;58548;47.210;8.618;2022-08-03T06:33:52;94254.75;;;33.21;31.63
70902;BME280;58548;47.210;8.618;2022-08-03T06:36:18;94290.25;;;33.83;31.02
70902;BME280;58548;47.210;8.618;2022-08-03T06:38:44;94244.00;;;33.89;30.07
70902;BME280;58548;47.210;8.618;2022-08-03T06:41:13;94264.47;;;34.45;29.83
70902;BME280;58548;47.210;8.618;2022-08-03T06:43:39;94278.06;;;34.94;29.40
70902;BME280;58548;47.210;8.618;2022-08-03T06:46:05;94267.59;;;35.21;27.99
70902;BME280;58548;47.210;8.618;2022-08-03T06:48:31;94232.59;;;35.16;27.45
70902;BME280;58548;47.210;8.618;2022-08-03T06:50:59;94295.09;;;36.01;27.50
70902;BME280;58548;47.210;8.618;2022-08-03T06:53:25;94220.75;;;35.93;27.14
70902;BME280;58548;47.210;8.618;2022-08-03T06:55:54;94238.16;;;36.37;26.43
70902;BME280;58548;47.210;8.618;2022-08-03T06:58:20;94283.69;;;36.88;25.57
70902;BME280;58548;47.210;8.618;2022-08-03T07:00:46;94235.16;;;36.74;25.10
70902;BME280;58548;47.210;8.618;2022-08-03T07:03:16;94271.91;;;37.36;25.41
70902;BME280;58548;47.210;8.618;2022-08-03T07:05:45;94244.38;;;37.21;23.95
70902;BME280;58548;47.210;8.618;2022-08-03T07:08:14;94240.19;;;37.63;24.04
70902;BME280;58548;47.210;8.618;2022-08-03T07:10:44;94239.25;;;37.95;23.22
70902;BME280;58548;47.210;8.618;2022-08-03T07:13:14;94290.56;;;38.36;23.32
70902;BME280;58548;47.210;8.618;2022-08-03T07:15:40;94300.19;;;38.72;22.68
70902;BME280;58548;47.210;8.618;2022-08-03T07:18:06;94304.13;;;38.98;22.56
70902;BME280;58548;47.210;8.618;2022-08-03T07:20:35;94294.28;;;39.20;22.70
70902;BME280;58548;47.210;8.618;2022-08-03T07:23:01;94294.53;;;39.35;22.42
70902;BME280;58548;47.210;8.618;2022-08-03T07:25:29;94290.94;;;39.61;21.34
70902;BME280;58548;47.210;8.618;2022-08-03T07:27:55;94298.69;;;39.86;21.69
70902;BME280;58548;47.210;8.618;2022-08-03T07:30:21;94260.63;;;39.74;21.96
70902;BME280;58548;47.210;8.618;2022-08-03T07:32:47;94282.41;;;39.97;21.59
70902;BME280;58548;47.210;8.618;2022-08-03T07:35:13;94295.41;;;40.49;20.60
70902;BME280;58548;47.210;8.618;2022-08-03T07:37:39;94300.06;;;40.86;20.31
70902;BME280;58548;47.210;8.618;2022-08-03T07:40:05;94247.66;;;40.88;20.22
70902;BME280;58548;47.210;8.618;2022-08-03T07:42:31;94294.09;;;41.33;20.03
70902;BME280;58548;47.210;8.618;2022-08-03T07:44:58;94249.22;;;41.52;20.02
70902;BME280;58548;47.210;8.618;2022-08-03T07:47:30;94260.72;;;41.94;19.96
70902;BME280;58548;47.210;8.618;2022-08-03T07:49:56;94268.63;;;42.20;19.79
70902;BME280;58548;47.210;8.618;2022-08-03T07:52:25;94257.66;;;42.17;19.91
70902;BME280;58548;47.210;8.618;2022-08-03T07:55:09;94247.50;;;42.46;19.10
70902;BME280;58548;47.210;8.618;2022-08-03T07:57:36;94302.81;;;42.92;18.93
70902;BME280;58548;47.210;8.618;2022-08-03T08:00:11;94298.50;;;43.02;18.83
70902;BME280;58548;47.210;8.618;2022-08-03T08:02:43;94309.44;;;43.34;18.83
70902;BME280;58548;47.210;8.618;2022-08-03T08:05:15;94286.66;;;43.48;18.19
70902;BME280;58548;47.210;8.618;2022-08-03T08:07:43;94300.59;;;44.05;17.72
70902;BME280;58548;47.210;8.618;2022-08-03T08:10:09;94299.66;;;44.29;17.52
70902;BME280;58548;47.210;8.618;2022-08-03T08:12:39;94291.72;;;44.46;17.07
70902;BME280;58548;47.210;8.618;2022-08-03T08:15:06;94253.22;;;44.35;16.44
70902;BME280;58548;47.210;8.618;2022-08-03T08:17:50;94296.22;;;44.71;16.30
70902;BME280;58548;47.210;8.618;2022-08-03T08:20:20;94256.94;;;44.67;16.47
70902;BME280;58548;47.210;8.618;2022-08-03T08:22:47;94301.47;;;45.03;16.44
70902;BME280;58548;47.210;8.618;2022-08-03T08:25:12;94306.03;;;45.25;16.10
70902;BME280;58548;47.210;8.618;2022-08-03T08:27:48;94312.88;;;45.47;15.88
70902;BME280;58548;47.210;8.618;2022-08-03T08:30:20;94307.38;;;45.47;15.59
70902;BME280;58548;47.210;8.618;2022-08-03T08:32:47;94264.47;;;45.05;15.63
70902;BME280;58548;47.210;8.618;2022-08-03T08:35:18;94295.66;;;45.36;15.76
70902;BME280;58548;47.210;8.618;2022-08-03T08:37:49;94280.31;;;45.35;15.92
70902;BME280;58548;47.210;8.618;2022-08-03T08:40:15;94310.97;;;45.79;15.98
70902;BME280;58548;47.210;8.618;2022-08-03T08:42:47;94309.03;;;46.11;15.12
70902;BME280;58548;47.210;8.618;2022-08-03T08:45:13;94307.22;;;46.28;15.24
70902;BME280;58548;47.210;8.618;2022-08-03T08:47:44;94312.13;;;46.44;14.93
70902;BME280;58548;47.210;8.618;2022-08-03T08:50:18;94256.56;;;45.80;14.97
70902;BME280;58548;47.210;8.618;2022-08-03T08:52:49;94300.97;;;46.24;14.63
70902;BME280;58548;47.210;8.618;2022-08-03T08:55:20;94304.75;;;46.33;15.06
70902;BME280;58548;47.210;8.618;2022-08-03T08:57:51;94255.75;;;46.14;14.24
70902;BME280;58548;47.210;8.618;2022-08-03T09:00:22;94307.53;;;46.33;14.57
70902;BME280;58548;47.210;8.618;2022-08-03T09:02:47;94303.94;;;46.36;14.36
70902;BME280;58548;47.210;8.618;2022-08-03T09:05:17;94264.03;;;46.14;13.92
70902;BME280;58548;47.210;8.618;2022-08-03T09:07:47;94304.56;;;46.48;14.53
70902;BME280;58548;47.210;8.618;2022-08-03T09:10:16;94308.28;;;46.61;14.10
70902;BME280;58548;47.210;8.618;2022-08-03T09:12:48;94306.88;;;46.77;14.51
70902;BME280;58548;47.210;8.618;2022-08-03T09:17:46;94307.13;;;46.86;13.28
70902;BME280;58548;47.210;8.618;2022-08-03T09:20:12;94267.13;;;46.71;13.04
70902;BME280;58548;47.210;8.618;2022-08-03T09:25:17;94299.78;;;46.52;13.08
70902;BME280;58548;47.210;8.618;2022-08-03T09:27:44;94318.00;;;46.97;13.65
70902;BME280;58548;47.210;8.618;2022-08-03T09:30:16;94272.88;;;46.56;12.73
70902;BME280;58548;47.210;8.618;2022-08-03T09:32:47;94314.06;;;47.22;12.30
70902;BME280;58548;47.210;8.618;2022-08-03T09:35:14;94277.72;;;47.00;12.60
70902;BME280;58548;47.210;8.618;2022-08-03T09:37:43;94322.91;;;47.57;13.43
70902;BME280;58548;47.210;8.618;2022-08-03T09:40:34;94318.81;;;47.65;12.84
70902;BME280;58548;47.210;8.618;2022-08-03T09:43:03;94269.34;;;47.03;12.58
70902;BME280;58548;47.210;8.618;2022-08-03T09:45:39;94279.19;;;47.48;13.00
70902;BME280;58548;47.210;8.618;2022-08-03T09:48:27;94313.06;;;47.96;12.84
70902;BME280;58548;47.210;8.618;2022-08-03T09:51:00;94265.81;;;47.47;12.94
70902;BME280;58548;47.210;8.618;2022-08-03T09:53:29;94326.75;;;47.83;12.54
70902;BME280;58548;47.210;8.618;2022-08-03T09:56:02;94270.13;;;47.68;12.89
70902;BME280;58548;47.210;8.618;2022-08-03T09:58:30;94253.25;;;47.82;12.17
70902;BME280;58548;47.210;8.618;2022-08-03T10:01:00;94278.91;;;48.03;12.49
70902;BME280;58548;47.210;8.618;2022-08-03T10:03:31;94274.09;;;48.07;12.96
70902;BME280;58548;47.210;8.618;2022-08-03T10:05:57;94313.19;;;48.63;12.02
70902;BME280;58548;47.210;8.618;2022-08-03T10:08:26;94309.31;;;48.77;11.88
70902;BME280;58548;47.210;8.618;2022-08-03T10:10:56;94304.09;;;48.62;12.27
70902;BME280;58548;47.210;8.618;2022-08-03T10:13:24;94266.28;;;48.39;12.66
70902;BME280;58548;47.210;8.618;2022-08-03T10:15:52;94305.78;;;48.76;11.51
70902;BME280;58548;47.210;8.618;2022-08-03T10:18:23;94305.81;;;48.39;11.58
70902;BME280;58548;47.210;8.618;2022-08-03T10:20:52;94295.09;;;48.41;11.42
70902;BME280;58548;47.210;8.618;2022-08-03T10:23:20;94292.31;;;48.58;11.56
70902;BME280;58548;47.210;8.618;2022-08-03T10:25:53;94300.81;;;48.51;11.50
70902;BME280;58548;47.210;8.618;2022-08-03T10:28:34;94290.16;;;48.66;11.32
70902;BME280;58548;47.210;8.618;2022-08-03T10:31:04;94294.09;;;48.68;10.80
70902;BME280;58548;47.210;8.618;2022-08-03T10:33:37;94292.06;;;48.85;11.58
70902;BME280;58548;47.210;8.618;2022-08-03T10:36:06;94213.13;;;48.44;11.44
70902;BME280;58548;47.210;8.618;2022-08-03T10:38:44;94254.44;;;48.71;11.21
70902;BME280;58548;47.210;8.618;2022-08-03T10:41:12;94303.22;;;48.98;10.75
70902;BME280;58548;47.210;8.618;2022-08-03T10:43:50;94291.47;;;49.11;10.72
70902;BME280;58548;47.210;8.618;2022-08-03T10:46:20;94292.44;;;49.50;10.63
70902;BME280;58548;47.210;8.618;2022-08-03T10:48:48;94297.63;;;49.48;10.67
70902;BME280;58548;47.210;8.618;2022-08-03T10:51:18;94293.91;;;49.68;10.37
70902;BME280;58548;47.210;8.618;2022-08-03T10:53:47;94287.72;;;49.76;11.03
70902;BME280;58548;47.210;8.618;2022-08-03T10:59:56;94278.44;;;49.24;11.07
70902;BME280;58548;47.210;8.618;2022-08-03T11:02:05;94285.75;;;49.47;10.95
70902;BME280;58548;47.210;8.618;2022-08-03T11:04:37;94250.63;;;49.41;11.04
70902;BME280;58548;47.210;8.618;2022-08-03T11:09:48;94231.16;;;49.15;10.33
70902;BME280;58548;47.210;8.618;2022-08-03T11:12:27;94255.75;;;49.72;10.60
70902;BME280;58548;47.210;8.618;2022-08-03T11:14:55;94269.16;;;49.73;10.25
70902;BME280;58548;47.210;8.618;2022-08-03T11:17:22;94282.09;;;49.93;10.51
70902;BME280;58548;47.210;8.618;2022-08-03T11:19:50;94264.69;;;49.92;10.04
70902;BME280;58548;47.210;8.618;2022-08-03T11:22:17;94269.13;;;50.03;10.64
70902;BME280;58548;47.210;8.618;2022-08-03T11:27:33;94275.69;;;50.09;10.29
70902;BME280;58548;47.210;8.618;2022-08-03T11:40:49;94270.50;;;50.37;9.88
70902;BME280;58548;47.210;8.618;2022-08-03T11:48:49;94270.72;;;50.56;10.07
70902;BME280;58548;47.210;8.618;2022-08-03T11:51:24;94265.22;;;50.78;9.08
70902;BME280;58548;47.210;8.618;2022-08-03T11:56:27;94212.38;;;50.30;7.67
70902;BME280;58548;47.210;8.618;2022-08-03T11:58:58;94258.56;;;50.49;8.11
70902;BME280;58548;47.210;8.618;2022-08-03T12:01:27;94219.38;;;50.21;8.89
70902;BME280;58548;47.210;8.618;2022-08-03T12:03:53;94255.25;;;50.29;8.78
70902;BME280;58548;47.210;8.618;2022-08-03T12:06:19;94207.50;;;49.95;9.41
70902;BME280;58548;47.210;8.618;2022-08-03T12:08:47;94257.50;;;50.21;9.60
70902;BME280;58548;47.210;8.618;2022-08-03T12:11:14;94250.25;;;50.11;9.71
70902;BME280;58548;47.210;8.618;2022-08-03T12:13:44;94249.38;;;50.14;10.22
70902;BME280;58548;47.210;8.618;2022-08-03T12:16:20;94199.69;;;49.64;10.39
70902;BME280;58548;47.210;8.618;2022-08-03T12:18:56;94246.69;;;49.84;10.06
70902;BME280;58548;47.210;8.618;2022-08-03T12:21:23;94247.50;;;49.55;10.79
70902;BME280;58548;47.210;8.618;2022-08-03T12:23:50;94193.63;;;48.81;10.25
70902;BME280;58548;47.210;8.618;2022-08-03T12:26:20;94235.78;;;48.88;9.97
70902;BME280;58548;47.210;8.618;2022-08-03T12:28:47;94244.63;;;48.50;10.04
70902;BME280;58548;47.210;8.618;2022-08-03T12:31:18;94202.06;;;47.34;11.09
70902;BME280;58548;47.210;8.618;2022-08-03T12:34:14;94236.63;;;47.02;11.58
70902;BME280;58548;47.210;8.618;2022-08-03T12:36:54;94186.66;;;46.69;12.44
70902;BME280;58548;47.210;8.618;2022-08-03T12:39:26;94236.94;;;46.84;12.62
70902;BME280;58548;47.210;8.618;2022-08-03T12:41:59;94205.78;;;46.59;11.37
70902;BME280;58548;47.210;8.618;2022-08-03T12:44:34;94194.09;;;46.48;10.87
70902;BME280;58548;47.210;8.618;2022-08-03T12:47:03;94209.34;;;46.32;11.56
70902;BME280;58548;47.210;8.618;2022-08-03T12:49:53;94240.78;;;46.39;11.68
70902;BME280;58548;47.210;8.618;2022-08-03T12:52:20;94241.97;;;46.14;11.99
70902;BME280;58548;47.210;8.618;2022-08-03T12:54:59;94232.63;;;46.04;12.60
70902;BME280;58548;47.210;8.618;2022-08-03T12:57:39;94234.13;;;45.77;12.78
70902;BME280;58548;47.210;8.618;2022-08-03T13:00:17;94235.44;;;45.69;12.65
70902;BME280;58548;47.210;8.618;2022-08-03T13:02:44;94225.19;;;45.70;12.12
70902;BME280;58548;47.210;8.618;2022-08-03T13:05:11;94216.16;;;45.66;11.49
70902;BME280;58548;47.210;8.618;2022-08-03T13:07:44;94190.44;;;45.10;12.28
70902;BME280;58548;47.210;8.618;2022-08-03T13:10:25;94174.09;;;44.92;12.52
70902;BME280;58548;47.210;8.618;2022-08-03T13:12:52;94229.66;;;45.22;13.00
70902;BME280;58548;47.210;8.618;2022-08-03T13:15:23;94225.78;;;45.15;13.52
70902;BME280;58548;47.210;8.618;2022-08-03T13:17:54;94226.75;;;44.98;12.66
70902;BME280;58548;47.210;8.618;2022-08-03T13:20:23;94220.09;;;44.95;13.16
70902;BME280;58548;47.210;8.618;2022-08-03T13:22:49;94223.19;;;45.01;12.56
70902;BME280;58548;47.210;8.618;2022-08-03T13:25:18;94173.63;;;44.55;12.89
70902;BME280;58548;47.210;8.618;2022-08-03T13:27:45;94227.69;;;44.80;12.38
70902;BME280;58548;47.210;8.618;2022-08-03T13:30:16;94218.78;;;44.69;12.42
70902;BME280;58548;47.210;8.618;2022-08-03T13:32:45;94171.38;;;44.43;12.19
70902;BME280;58548;47.210;8.618;2022-08-03T13:35:13;94206.53;;;44.73;12.29
70902;BME280;58548;47.210;8.618;2022-08-03T13:37:42;94216.88;;;44.58;12.50
70902;BME280;58548;47.210;8.618;2022-08-03T13:40:10;94215.38;;;44.50;12.44
70902;BME280;58548;47.210;8.618;2022-08-03T13:42:39;94212.28;;;44.41;12.37
70902;BME280;58548;47.210;8.618;2022-08-03T13:45:05;94216.00;;;44.16;12.60
70902;BME280;58548;47.210;8.618;2022-08-03T13:47:31;94206.41;;;43.79;12.32
70902;BME280;58548;47.210;8.618;2022-08-03T13:49:59;94211.84;;;43.86;13.01
70902;BME280;58548;47.210;8.618;2022-08-03T13:52:36;94167.22;;;43.60;12.64
70902;BME280;58548;47.210;8.618;2022-08-03T13:55:05;94211.84;;;43.86;13.01
70902;BME280;58548;47.210;8.618;2022-08-03T13:57:36;94161.78;;;43.46;14.03